CA-0486 weather

CLOSED Leaside Aerodrome
Toronto, Ontario, Canada

Public forecast

Using degrees Celsius for public forecast. Weather courtesy of forecast.io.

Closest aviation weather report (METAR) to Leaside Aerodrome

Closest report is Billy Bishop Toronto City Centre Airport, 5.4 nm (9.9 km) SSW. Retrieved 2020/06/05 02:00 UTC (21 minutes ago):

CYTZ 050200Z AUTO VRB02KT 9SM CLR 18/15 A2978 RMK SLP087 DENSITY ALT 800FT

Closest aviation forecast (TAF) to Leaside Aerodrome

Closest forecast is Billy Bishop Toronto City Centre Airport, 5.4 nm (9.9 km) SSW. Retrieved 2020-06-05 02:42 UTC (0 seconds ago):

TAF CYTZ 050138Z 0502/0602 26005KT P6SM FEW070 PROB30 0509/0513 3/4SM BR BKN004 FM051600 16012KT P6SM SCT050 FM051900 18010G20KT P6SM -SHRA BKN050 PROB30 0519/0523 2SM +TSRA BR BKN020 OVC050CB FM052300 24012KT P6SM BKN070 BECMG 0600/0602 34007KT RMK FCST BASED ON AUTO OBS NXT FCST BY 050800Z